sensor_id;sensor_type;location;lat;lon;timestamp;P1;durP1;ratioP1;P2;durP2;ratioP2
62479;SDS011;48526;48.846;2.322;2022-07-09T00:01:25;10.25;;;9.25;;
62479;SDS011;48526;48.846;2.322;2022-07-09T00:03:53;7.00;;;7.00;;
62479;SDS011;48526;48.846;2.322;2022-07-09T00:06:22;9.25;;;8.00;;
62479;SDS011;48526;48.846;2.322;2022-07-09T00:08:49;10.00;;;10.00;;
62479;SDS011;48526;48.846;2.322;2022-07-09T00:11:15;13.25;;;10.25;;
62479;SDS011;48526;48.846;2.322;2022-07-09T00:13:40;12.00;;;10.50;;
62479;SDS011;48526;48.846;2.322;2022-07-09T00:16:08;8.00;;;8.00;;
62479;SDS011;48526;48.846;2.322;2022-07-09T00:18:36;14.00;;;11.75;;
62479;SDS011;48526;48.846;2.322;2022-07-09T00:21:02;12.50;;;11.75;;
62479;SDS011;48526;48.846;2.322;2022-07-09T00:23:33;11.25;;;9.25;;
62479;SDS011;48526;48.846;2.322;2022-07-09T00:26:01;14.50;;;12.75;;
62479;SDS011;48526;48.846;2.322;2022-07-09T00:28:26;18.00;;;16.00;;
62479;SDS011;48526;48.846;2.322;2022-07-09T00:30:54;17.25;;;15.75;;
62479;SDS011;48526;48.846;2.322;2022-07-09T00:33:22;17.00;;;17.00;;
62479;SDS011;48526;48.846;2.322;2022-07-09T00:35:50;23.75;;;18.25;;
62479;SDS011;48526;48.846;2.322;2022-07-09T00:38:15;27.25;;;24.00;;
62479;SDS011;48526;48.846;2.322;2022-07-09T00:40:50;26.00;;;24.00;;
62479;SDS011;48526;48.846;2.322;2022-07-09T00:43:23;25.75;;;21.25;;
62479;SDS011;48526;48.846;2.322;2022-07-09T00:45:49;24.75;;;22.50;;
62479;SDS011;48526;48.846;2.322;2022-07-09T00:48:16;26.25;;;21.00;;
62479;SDS011;48526;48.846;2.322;2022-07-09T00:50:44;23.00;;;19.25;;
62479;SDS011;48526;48.846;2.322;2022-07-09T00:53:14;18.00;;;17.00;;
62479;SDS011;48526;48.846;2.322;2022-07-09T00:55:41;23.25;;;18.00;;
62479;SDS011;48526;48.846;2.322;2022-07-09T00:58:09;14.25;;;11.25;;
62479;SDS011;48526;48.846;2.322;2022-07-09T01:00:36;14.25;;;13.75;;
62479;SDS011;48526;48.846;2.322;2022-07-09T01:03:01;18.50;;;14.00;;
62479;SDS011;48526;48.846;2.322;2022-07-09T01:05:27;16.00;;;12.25;;
62479;SDS011;48526;48.846;2.322;2022-07-09T01:08:02;12.75;;;12.00;;
62479;SDS011;48526;48.846;2.322;2022-07-09T01:10:31;12.25;;;10.00;;
62479;SDS011;48526;48.846;2.322;2022-07-09T01:12:57;13.00;;;12.00;;
62479;SDS011;48526;48.846;2.322;2022-07-09T01:15:23;9.50;;;9.50;;
62479;SDS011;48526;48.846;2.322;2022-07-09T01:17:49;12.25;;;10.50;;
62479;SDS011;48526;48.846;2.322;2022-07-09T01:20:26;9.50;;;9.50;;
62479;SDS011;48526;48.846;2.322;2022-07-09T01:22:54;8.00;;;8.00;;
62479;SDS011;48526;48.846;2.322;2022-07-09T01:25:19;8.50;;;7.75;;
62479;SDS011;48526;48.846;2.322;2022-07-09T01:27:52;8.00;;;6.75;;
62479;SDS011;48526;48.846;2.322;2022-07-09T01:30:25;6.75;;;6.75;;
62479;SDS011;48526;48.846;2.322;2022-07-09T01:32:51;10.25;;;7.50;;
62479;SDS011;48526;48.846;2.322;2022-07-09T01:35:17;6.75;;;6.75;;
62479;SDS011;48526;48.846;2.322;2022-07-09T01:37:43;6.75;;;6.75;;
62479;SDS011;48526;48.846;2.322;2022-07-09T01:40:09;10.25;;;8.25;;
62479;SDS011;48526;48.846;2.322;2022-07-09T01:42:35;7.25;;;7.25;;
62479;SDS011;48526;48.846;2.322;2022-07-09T01:45:00;7.50;;;7.50;;
62479;SDS011;48526;48.846;2.322;2022-07-09T01:47:25;7.75;;;7.75;;
62479;SDS011;48526;48.846;2.322;2022-07-09T01:49:51;7.00;;;7.00;;
62479;SDS011;48526;48.846;2.322;2022-07-09T01:52:19;10.00;;;8.50;;
62479;SDS011;48526;48.846;2.322;2022-07-09T01:54:44;9.50;;;8.50;;
62479;SDS011;48526;48.846;2.322;2022-07-09T01:57:10;6.75;;;6.25;;
62479;SDS011;48526;48.846;2.322;2022-07-09T01:59:35;5.75;;;5.75;;
62479;SDS011;48526;48.846;2.322;2022-07-09T02:02:03;7.25;;;7.00;;
62479;SDS011;48526;48.846;2.322;2022-07-09T02:04:30;9.50;;;8.25;;
62479;SDS011;48526;48.846;2.322;2022-07-09T02:06:58;7.50;;;7.50;;
62479;SDS011;48526;48.846;2.322;2022-07-09T02:09:26;9.50;;;8.25;;
62479;SDS011;48526;48.846;2.322;2022-07-09T02:11:51;9.00;;;9.00;;
62479;SDS011;48526;48.846;2.322;2022-07-09T02:14:17;9.25;;;7.50;;
62479;SDS011;48526;48.846;2.322;2022-07-09T02:16:53;8.75;;;8.00;;
62479;SDS011;48526;48.846;2.322;2022-07-09T02:19:21;7.75;;;7.50;;
62479;SDS011;48526;48.846;2.322;2022-07-09T02:21:46;11.25;;;11.25;;
62479;SDS011;48526;48.846;2.322;2022-07-09T02:24:11;8.00;;;7.75;;
62479;SDS011;48526;48.846;2.322;2022-07-09T02:26:39;9.00;;;7.50;;
62479;SDS011;48526;48.846;2.322;2022-07-09T02:29:04;10.75;;;8.50;;
62479;SDS011;48526;48.846;2.322;2022-07-09T02:31:30;8.00;;;8.00;;
62479;SDS011;48526;48.846;2.322;2022-07-09T02:33:55;8.25;;;8.25;;
62479;SDS011;48526;48.846;2.322;2022-07-09T02:36:22;6.75;;;6.75;;
62479;SDS011;48526;48.846;2.322;2022-07-09T02:38:48;9.50;;;7.00;;
62479;SDS011;48526;48.846;2.322;2022-07-09T02:41:13;8.00;;;8.00;;
62479;SDS011;48526;48.846;2.322;2022-07-09T02:43:39;11.50;;;8.00;;
62479;SDS011;48526;48.846;2.322;2022-07-09T02:46:07;7.25;;;7.00;;
62479;SDS011;48526;48.846;2.322;2022-07-09T02:48:33;9.00;;;9.00;;
62479;SDS011;48526;48.846;2.322;2022-07-09T02:50:59;9.25;;;8.75;;
62479;SDS011;48526;48.846;2.322;2022-07-09T02:53:25;6.00;;;6.00;;
62479;SDS011;48526;48.846;2.322;2022-07-09T02:55:51;8.50;;;8.25;;
62479;SDS011;48526;48.846;2.322;2022-07-09T02:58:16;9.75;;;9.00;;
62479;SDS011;48526;48.846;2.322;2022-07-09T03:00:42;8.50;;;8.50;;
62479;SDS011;48526;48.846;2.322;2022-07-09T03:03:07;10.50;;;10.00;;
62479;SDS011;48526;48.846;2.322;2022-07-09T03:05:33;9.50;;;9.50;;
62479;SDS011;48526;48.846;2.322;2022-07-09T03:07:58;8.75;;;8.75;;
62479;SDS011;48526;48.846;2.322;2022-07-09T03:10:24;7.25;;;6.25;;
62479;SDS011;48526;48.846;2.322;2022-07-09T03:12:49;8.00;;;8.00;;
62479;SDS011;48526;48.846;2.322;2022-07-09T03:15:15;8.50;;;8.50;;
62479;SDS011;48526;48.846;2.322;2022-07-09T03:17:42;7.00;;;7.00;;
62479;SDS011;48526;48.846;2.322;2022-07-09T03:20:08;10.00;;;8.00;;
62479;SDS011;48526;48.846;2.322;2022-07-09T03:22:35;9.00;;;9.00;;
62479;SDS011;48526;48.846;2.322;2022-07-09T03:25:02;7.50;;;7.50;;
62479;SDS011;48526;48.846;2.322;2022-07-09T03:27:28;7.75;;;7.00;;
62479;SDS011;48526;48.846;2.322;2022-07-09T03:29:53;8.75;;;8.00;;
62479;SDS011;48526;48.846;2.322;2022-07-09T03:32:19;7.50;;;7.50;;
62479;SDS011;48526;48.846;2.322;2022-07-09T03:34:44;8.50;;;8.00;;
62479;SDS011;48526;48.846;2.322;2022-07-09T03:37:10;8.50;;;8.50;;
62479;SDS011;48526;48.846;2.322;2022-07-09T03:39:35;15.25;;;14.00;;
62479;SDS011;48526;48.846;2.322;2022-07-09T03:42:01;13.25;;;11.00;;
62479;SDS011;48526;48.846;2.322;2022-07-09T03:44:31;8.50;;;8.50;;
62479;SDS011;48526;48.846;2.322;2022-07-09T03:46:59;6.00;;;6.00;;
62479;SDS011;48526;48.846;2.322;2022-07-09T03:49:25;9.50;;;9.25;;
62479;SDS011;48526;48.846;2.322;2022-07-09T03:51:51;9.50;;;8.75;;
62479;SDS011;48526;48.846;2.322;2022-07-09T03:54:16;9.50;;;8.75;;
62479;SDS011;48526;48.846;2.322;2022-07-09T03:56:42;9.50;;;9.50;;
62479;SDS011;48526;48.846;2.322;2022-07-09T03:59:07;10.00;;;8.00;;
62479;SDS011;48526;48.846;2.322;2022-07-09T04:01:33;9.00;;;9.00;;
62479;SDS011;48526;48.846;2.322;2022-07-09T04:03:58;8.00;;;8.00;;
62479;SDS011;48526;48.846;2.322;2022-07-09T04:06:24;9.00;;;8.00;;
62479;SDS011;48526;48.846;2.322;2022-07-09T04:08:49;11.25;;;10.00;;
62479;SDS011;48526;48.846;2.322;2022-07-09T04:11:15;8.25;;;7.00;;
62479;SDS011;48526;48.846;2.322;2022-07-09T04:13:40;9.50;;;8.00;;
62479;SDS011;48526;48.846;2.322;2022-07-09T04:16:06;11.75;;;10.00;;
62479;SDS011;48526;48.846;2.322;2022-07-09T04:18:32;10.50;;;10.50;;
62479;SDS011;48526;48.846;2.322;2022-07-09T04:20:57;7.75;;;7.75;;
62479;SDS011;48526;48.846;2.322;2022-07-09T04:23:23;9.00;;;8.50;;
62479;SDS011;48526;48.846;2.322;2022-07-09T04:25:48;9.25;;;9.00;;
62479;SDS011;48526;48.846;2.322;2022-07-09T04:28:15;9.25;;;6.25;;
62479;SDS011;48526;48.846;2.322;2022-07-09T04:30:42;8.00;;;8.00;;
62479;SDS011;48526;48.846;2.322;2022-07-09T04:33:08;8.00;;;7.00;;
62479;SDS011;48526;48.846;2.322;2022-07-09T04:35:35;8.00;;;6.75;;
62479;SDS011;48526;48.846;2.322;2022-07-09T04:38:01;10.75;;;7.00;;
62479;SDS011;48526;48.846;2.322;2022-07-09T04:40:29;11.25;;;9.75;;
62479;SDS011;48526;48.846;2.322;2022-07-09T04:42:55;8.25;;;7.50;;
62479;SDS011;48526;48.846;2.322;2022-07-09T04:45:21;10.00;;;8.50;;
62479;SDS011;48526;48.846;2.322;2022-07-09T04:47:46;8.50;;;8.50;;
62479;SDS011;48526;48.846;2.322;2022-07-09T04:50:11;11.25;;;9.00;;
62479;SDS011;48526;48.846;2.322;2022-07-09T04:52:37;8.00;;;8.00;;
62479;SDS011;48526;48.846;2.322;2022-07-09T04:55:03;13.25;;;10.25;;
62479;SDS011;48526;48.846;2.322;2022-07-09T04:57:29;9.50;;;9.50;;
62479;SDS011;48526;48.846;2.322;2022-07-09T04:59:58;10.00;;;7.50;;
62479;SDS011;48526;48.846;2.322;2022-07-09T05:02:24;10.25;;;9.75;;
62479;SDS011;48526;48.846;2.322;2022-07-09T05:04:50;9.50;;;8.00;;
62479;SDS011;48526;48.846;2.322;2022-07-09T05:07:15;9.75;;;9.75;;
62479;SDS011;48526;48.846;2.322;2022-07-09T05:09:40;9.25;;;9.25;;
62479;SDS011;48526;48.846;2.322;2022-07-09T05:12:06;11.75;;;9.50;;
62479;SDS011;48526;48.846;2.322;2022-07-09T05:14:33;9.50;;;9.00;;
62479;SDS011;48526;48.846;2.322;2022-07-09T05:17:01;9.00;;;9.00;;
62479;SDS011;48526;48.846;2.322;2022-07-09T05:19:26;14.50;;;9.25;;
62479;SDS011;48526;48.846;2.322;2022-07-09T05:21:52;10.75;;;7.50;;
62479;SDS011;48526;48.846;2.322;2022-07-09T05:24:17;10.50;;;10.25;;
62479;SDS011;48526;48.846;2.322;2022-07-09T05:26:43;9.25;;;8.25;;
62479;SDS011;48526;48.846;2.322;2022-07-09T05:29:08;9.25;;;9.25;;
62479;SDS011;48526;48.846;2.322;2022-07-09T05:31:34;10.00;;;9.25;;
62479;SDS011;48526;48.846;2.322;2022-07-09T05:33:59;12.00;;;11.00;;
62479;SDS011;48526;48.846;2.322;2022-07-09T05:36:25;12.00;;;10.50;;
62479;SDS011;48526;48.846;2.322;2022-07-09T05:38:53;10.75;;;10.25;;
62479;SDS011;48526;48.846;2.322;2022-07-09T05:41:19;9.00;;;7.50;;
62479;SDS011;48526;48.846;2.322;2022-07-09T05:43:44;11.00;;;10.00;;
62479;SDS011;48526;48.846;2.322;2022-07-09T05:46:10;12.50;;;12.50;;
62479;SDS011;48526;48.846;2.322;2022-07-09T05:48:35;11.50;;;10.50;;
62479;SDS011;48526;48.846;2.322;2022-07-09T05:51:01;9.50;;;9.50;;
62479;SDS011;48526;48.846;2.322;2022-07-09T05:53:26;10.00;;;8.75;;
62479;SDS011;48526;48.846;2.322;2022-07-09T05:55:54;12.00;;;11.00;;
62479;SDS011;48526;48.846;2.322;2022-07-09T05:58:20;10.00;;;10.00;;
62479;SDS011;48526;48.846;2.322;2022-07-09T06:00:45;13.50;;;11.75;;
62479;SDS011;48526;48.846;2.322;2022-07-09T06:03:11;11.00;;;10.25;;
62479;SDS011;48526;48.846;2.322;2022-07-09T06:05:36;13.00;;;12.25;;
62479;SDS011;48526;48.846;2.322;2022-07-09T06:08:02;12.25;;;12.25;;
62479;SDS011;48526;48.846;2.322;2022-07-09T06:10:27;11.75;;;10.75;;
62479;SDS011;48526;48.846;2.322;2022-07-09T06:12:53;11.00;;;9.25;;
62479;SDS011;48526;48.846;2.322;2022-07-09T06:15:18;11.25;;;10.25;;
62479;SDS011;48526;48.846;2.322;2022-07-09T06:17:43;11.50;;;11.00;;
62479;SDS011;48526;48.846;2.322;2022-07-09T06:20:09;14.25;;;14.00;;
62479;SDS011;48526;48.846;2.322;2022-07-09T06:22:35;16.50;;;14.25;;
62479;SDS011;48526;48.846;2.322;2022-07-09T06:25:01;12.00;;;12.00;;
62479;SDS011;48526;48.846;2.322;2022-07-09T06:27:26;11.25;;;11.25;;
62479;SDS011;48526;48.846;2.322;2022-07-09T06:29:52;13.00;;;12.00;;
62479;SDS011;48526;48.846;2.322;2022-07-09T06:32:18;14.00;;;14.00;;
62479;SDS011;48526;48.846;2.322;2022-07-09T06:34:43;15.75;;;12.00;;
62479;SDS011;48526;48.846;2.322;2022-07-09T06:37:09;14.00;;;14.00;;
62479;SDS011;48526;48.846;2.322;2022-07-09T06:39:34;15.25;;;12.75;;
62479;SDS011;48526;48.846;2.322;2022-07-09T06:42:16;13.00;;;11.50;;
62479;SDS011;48526;48.846;2.322;2022-07-09T06:44:43;12.00;;;10.75;;
62479;SDS011;48526;48.846;2.322;2022-07-09T06:47:09;9.75;;;9.75;;
62479;SDS011;48526;48.846;2.322;2022-07-09T06:49:35;12.00;;;12.00;;
62479;SDS011;48526;48.846;2.322;2022-07-09T06:52:01;9.25;;;9.25;;
62479;SDS011;48526;48.846;2.322;2022-07-09T06:54:29;14.50;;;12.00;;
62479;SDS011;48526;48.846;2.322;2022-07-09T06:56:54;10.00;;;8.75;;
62479;SDS011;48526;48.846;2.322;2022-07-09T06:59:21;14.75;;;13.50;;
62479;SDS011;48526;48.846;2.322;2022-07-09T07:01:49;11.25;;;11.00;;
62479;SDS011;48526;48.846;2.322;2022-07-09T07:04:15;11.50;;;10.50;;
62479;SDS011;48526;48.846;2.322;2022-07-09T07:06:41;14.50;;;12.25;;
62479;SDS011;48526;48.846;2.322;2022-07-09T07:09:07;12.75;;;12.75;;
62479;SDS011;48526;48.846;2.322;2022-07-09T07:11:35;11.50;;;11.50;;
62479;SDS011;48526;48.846;2.322;2022-07-09T07:14:00;11.75;;;10.00;;
62479;SDS011;48526;48.846;2.322;2022-07-09T07:16:26;11.50;;;10.75;;
62479;SDS011;48526;48.846;2.322;2022-07-09T07:18:54;9.75;;;9.75;;
62479;SDS011;48526;48.846;2.322;2022-07-09T07:21:19;10.75;;;10.25;;
62479;SDS011;48526;48.846;2.322;2022-07-09T07:23:45;8.75;;;8.75;;
62479;SDS011;48526;48.846;2.322;2022-07-09T07:26:10;15.75;;;12.75;;
62479;SDS011;48526;48.846;2.322;2022-07-09T07:28:36;10.75;;;10.75;;
62479;SDS011;48526;48.846;2.322;2022-07-09T07:31:01;9.75;;;9.50;;
62479;SDS011;48526;48.846;2.322;2022-07-09T07:33:27;11.25;;;9.25;;
62479;SDS011;48526;48.846;2.322;2022-07-09T07:35:53;9.50;;;9.50;;
62479;SDS011;48526;48.846;2.322;2022-07-09T07:38:18;9.75;;;9.75;;
62479;SDS011;48526;48.846;2.322;2022-07-09T07:40:45;14.00;;;11.25;;
62479;SDS011;48526;48.846;2.322;2022-07-09T07:43:10;10.00;;;10.00;;
62479;SDS011;48526;48.846;2.322;2022-07-09T07:45:36;9.75;;;9.75;;
62479;SDS011;48526;48.846;2.322;2022-07-09T07:48:02;10.25;;;9.00;;
62479;SDS011;48526;48.846;2.322;2022-07-09T07:50:30;9.25;;;8.25;;
62479;SDS011;48526;48.846;2.322;2022-07-09T07:52:57;12.50;;;12.25;;
62479;SDS011;48526;48.846;2.322;2022-07-09T07:55:23;8.25;;;7.25;;
62479;SDS011;48526;48.846;2.322;2022-07-09T07:57:49;7.25;;;6.50;;
62479;SDS011;48526;48.846;2.322;2022-07-09T08:00:14;7.75;;;7.75;;
62479;SDS011;48526;48.846;2.322;2022-07-09T08:02:43;8.25;;;8.25;;
62479;SDS011;48526;48.846;2.322;2022-07-09T08:05:08;11.50;;;11.50;;
62479;SDS011;48526;48.846;2.322;2022-07-09T08:07:34;11.00;;;8.25;;
62479;SDS011;48526;48.846;2.322;2022-07-09T08:09:59;7.75;;;7.75;;
62479;SDS011;48526;48.846;2.322;2022-07-09T08:12:25;12.50;;;9.75;;
62479;SDS011;48526;48.846;2.322;2022-07-09T08:14:51;9.50;;;8.50;;
62479;SDS011;48526;48.846;2.322;2022-07-09T08:17:16;8.00;;;8.00;;
62479;SDS011;48526;48.846;2.322;2022-07-09T08:19:44;8.00;;;8.00;;
62479;SDS011;48526;48.846;2.322;2022-07-09T08:22:11;10.25;;;9.00;;
62479;SDS011;48526;48.846;2.322;2022-07-09T08:24:37;9.50;;;9.00;;
62479;SDS011;48526;48.846;2.322;2022-07-09T08:27:04;10.00;;;10.00;;
62479;SDS011;48526;48.846;2.322;2022-07-09T08:29:30;9.00;;;8.50;;
62479;SDS011;48526;48.846;2.322;2022-07-09T08:31:55;6.00;;;6.00;;
62479;SDS011;48526;48.846;2.322;2022-07-09T08:34:21;8.75;;;8.75;;
62479;SDS011;48526;48.846;2.322;2022-07-09T08:36:46;7.75;;;7.75;;
62479;SDS011;48526;48.846;2.322;2022-07-09T08:39:15;9.75;;;8.00;;
62479;SDS011;48526;48.846;2.322;2022-07-09T08:41:40;9.25;;;8.25;;
62479;SDS011;48526;48.846;2.322;2022-07-09T08:44:06;8.00;;;7.25;;
62479;SDS011;48526;48.846;2.322;2022-07-09T08:46:38;7.00;;;7.00;;
62479;SDS011;48526;48.846;2.322;2022-07-09T08:49:07;6.50;;;6.50;;
62479;SDS011;48526;48.846;2.322;2022-07-09T08:51:35;9.00;;;8.00;;
62479;SDS011;48526;48.846;2.322;2022-07-09T08:54:02;8.00;;;8.00;;
62479;SDS011;48526;48.846;2.322;2022-07-09T08:56:28;7.25;;;7.25;;
62479;SDS011;48526;48.846;2.322;2022-07-09T08:59:02;7.00;;;7.00;;
62479;SDS011;48526;48.846;2.322;2022-07-09T09:01:30;7.00;;;6.00;;
62479;SDS011;48526;48.846;2.322;2022-07-09T09:03:58;5.00;;;5.00;;
62479;SDS011;48526;48.846;2.322;2022-07-09T09:06:26;6.00;;;6.00;;
62479;SDS011;48526;48.846;2.322;2022-07-09T09:08:55;4.25;;;4.25;;
62479;SDS011;48526;48.846;2.322;2022-07-09T09:11:23;5.75;;;5.50;;
62479;SDS011;48526;48.846;2.322;2022-07-09T09:13:50;5.00;;;5.00;;
62479;SDS011;48526;48.846;2.322;2022-07-09T09:16:19;7.75;;;5.75;;
62479;SDS011;48526;48.846;2.322;2022-07-09T09:18:48;6.25;;;6.25;;
62479;SDS011;48526;48.846;2.322;2022-07-09T09:21:18;4.75;;;4.75;;
62479;SDS011;48526;48.846;2.322;2022-07-09T09:23:46;5.00;;;5.00;;
62479;SDS011;48526;48.846;2.322;2022-07-09T09:26:26;4.50;;;4.50;;
62479;SDS011;48526;48.846;2.322;2022-07-09T09:28:52;5.00;;;5.00;;
62479;SDS011;48526;48.846;2.322;2022-07-09T09:31:20;5.00;;;5.00;;
62479;SDS011;48526;48.846;2.322;2022-07-09T09:33:53;4.50;;;3.00;;
62479;SDS011;48526;48.846;2.322;2022-07-09T09:39:14;6.00;;;5.00;;
62479;SDS011;48526;48.846;2.322;2022-07-09T09:41:44;6.00;;;5.00;;
62479;SDS011;48526;48.846;2.322;2022-07-09T09:44:15;6.75;;;6.00;;
62479;SDS011;48526;48.846;2.322;2022-07-09T09:46:44;6.75;;;5.75;;
62479;SDS011;48526;48.846;2.322;2022-07-09T09:49:11;6.25;;;6.00;;
62479;SDS011;48526;48.846;2.322;2022-07-09T09:51:56;7.25;;;7.00;;
62479;SDS011;48526;48.846;2.322;2022-07-09T09:54:32;5.00;;;5.00;;
62479;SDS011;48526;48.846;2.322;2022-07-09T09:56:58;5.00;;;5.00;;
62479;SDS011;48526;48.846;2.322;2022-07-09T09:59:24;8.25;;;8.25;;
62479;SDS011;48526;48.846;2.322;2022-07-09T10:01:50;7.00;;;6.00;;
62479;SDS011;48526;48.846;2.322;2022-07-09T10:04:15;2.00;;;2.00;;
62479;SDS011;48526;48.846;2.322;2022-07-09T10:06:42;4.25;;;4.00;;
62479;SDS011;48526;48.846;2.322;2022-07-09T10:09:19;4.50;;;4.50;;
62479;SDS011;48526;48.846;2.322;2022-07-09T10:11:52;7.00;;;5.25;;
62479;SDS011;48526;48.846;2.322;2022-07-09T10:14:29;5.25;;;5.00;;
62479;SDS011;48526;48.846;2.322;2022-07-09T10:16:56;3.75;;;3.75;;
62479;SDS011;48526;48.846;2.322;2022-07-09T10:19:25;6.50;;;6.00;;
62479;SDS011;48526;48.846;2.322;2022-07-09T10:21:58;8.00;;;6.75;;
62479;SDS011;48526;48.846;2.322;2022-07-09T10:24:29;7.50;;;6.00;;
62479;SDS011;48526;48.846;2.322;2022-07-09T10:27:02;6.50;;;6.00;;
62479;SDS011;48526;48.846;2.322;2022-07-09T10:29:32;4.50;;;4.50;;
62479;SDS011;48526;48.846;2.322;2022-07-09T10:32:24;5.50;;;4.75;;
62479;SDS011;48526;48.846;2.322;2022-07-09T10:40:09;5.50;;;5.50;;
62479;SDS011;48526;48.846;2.322;2022-07-09T10:42:35;4.00;;;3.75;;
62479;SDS011;48526;48.846;2.322;2022-07-09T10:45:01;6.50;;;5.25;;
62479;SDS011;48526;48.846;2.322;2022-07-09T10:47:37;6.00;;;6.00;;
62479;SDS011;48526;48.846;2.322;2022-07-09T10:50:06;3.00;;;3.00;;
62479;SDS011;48526;48.846;2.322;2022-07-09T10:52:31;4.75;;;4.25;;
62479;SDS011;48526;48.846;2.322;2022-07-09T10:54:57;5.00;;;5.00;;
62479;SDS011;48526;48.846;2.322;2022-07-09T10:57:23;6.00;;;5.00;;
62479;SDS011;48526;48.846;2.322;2022-07-09T10:59:48;5.25;;;4.25;;
62479;SDS011;48526;48.846;2.322;2022-07-09T11:02:22;5.25;;;4.50;;
62479;SDS011;48526;48.846;2.322;2022-07-09T11:04:48;5.00;;;4.75;;
62479;SDS011;48526;48.846;2.322;2022-07-09T11:07:19;3.75;;;3.75;;
62479;SDS011;48526;48.846;2.322;2022-07-09T11:09:48;6.50;;;5.25;;
62479;SDS011;48526;48.846;2.322;2022-07-09T11:12:17;4.50;;;4.50;;
62479;SDS011;48526;48.846;2.322;2022-07-09T11:14:49;6.25;;;6.00;;
62479;SDS011;48526;48.846;2.322;2022-07-09T11:17:16;5.00;;;5.00;;
62479;SDS011;48526;48.846;2.322;2022-07-09T11:19:42;5.00;;;5.00;;
62479;SDS011;48526;48.846;2.322;2022-07-09T11:22:08;5.75;;;4.75;;
62479;SDS011;48526;48.846;2.322;2022-07-09T11:24:34;6.00;;;6.00;;
62479;SDS011;48526;48.846;2.322;2022-07-09T11:27:01;5.00;;;5.00;;
62479;SDS011;48526;48.846;2.322;2022-07-09T11:29:30;6.00;;;5.00;;
62479;SDS011;48526;48.846;2.322;2022-07-09T11:31:59;6.25;;;6.25;;
62479;SDS011;48526;48.846;2.322;2022-07-09T11:34:31;9.00;;;8.00;;
62479;SDS011;48526;48.846;2.322;2022-07-09T11:36:59;4.75;;;4.75;;
62479;SDS011;48526;48.846;2.322;2022-07-09T11:39:28;5.75;;;5.75;;
62479;SDS011;48526;48.846;2.322;2022-07-09T11:41:56;5.50;;;4.50;;
62479;SDS011;48526;48.846;2.322;2022-07-09T11:44:26;7.00;;;7.00;;
62479;SDS011;48526;48.846;2.322;2022-07-09T11:47:02;6.50;;;5.25;;
62479;SDS011;48526;48.846;2.322;2022-07-09T11:49:39;4.25;;;4.25;;
62479;SDS011;48526;48.846;2.322;2022-07-09T11:54:56;5.75;;;5.50;;
62479;SDS011;48526;48.846;2.322;2022-07-09T11:57:25;8.00;;;8.00;;
62479;SDS011;48526;48.846;2.322;2022-07-09T11:59:51;6.50;;;6.00;;
62479;SDS011;48526;48.846;2.322;2022-07-09T12:02:31;7.00;;;6.50;;
62479;SDS011;48526;48.846;2.322;2022-07-09T12:05:01;6.00;;;6.00;;
62479;SDS011;48526;48.846;2.322;2022-07-09T12:07:31;5.75;;;4.75;;
62479;SDS011;48526;48.846;2.322;2022-07-09T12:10:03;6.75;;;6.75;;
62479;SDS011;48526;48.846;2.322;2022-07-09T12:12:31;4.00;;;4.00;;
62479;SDS011;48526;48.846;2.322;2022-07-09T12:14:57;8.50;;;7.50;;
62479;SDS011;48526;48.846;2.322;2022-07-09T12:17:26;6.25;;;5.00;;
62479;SDS011;48526;48.846;2.322;2022-07-09T12:19:53;9.00;;;7.00;;
62479;SDS011;48526;48.846;2.322;2022-07-09T12:22:31;6.00;;;6.00;;
62479;SDS011;48526;48.846;2.322;2022-07-09T12:24:59;6.00;;;6.00;;
62479;SDS011;48526;48.846;2.322;2022-07-09T12:27:26;6.25;;;6.25;;
62479;SDS011;48526;48.846;2.322;2022-07-09T12:29:54;8.00;;;6.25;;
62479;SDS011;48526;48.846;2.322;2022-07-09T12:32:19;5.25;;;5.25;;
62479;SDS011;48526;48.846;2.322;2022-07-09T12:34:47;6.50;;;5.75;;
62479;SDS011;48526;48.846;2.322;2022-07-09T12:37:13;7.00;;;7.00;;
62479;SDS011;48526;48.846;2.322;2022-07-09T12:39:44;8.00;;;6.25;;
62479;SDS011;48526;48.846;2.322;2022-07-09T12:42:09;7.50;;;6.50;;
62479;SDS011;48526;48.846;2.322;2022-07-09T12:44:44;5.00;;;5.00;;
62479;SDS011;48526;48.846;2.322;2022-07-09T12:47:10;6.00;;;5.00;;
62479;SDS011;48526;48.846;2.322;2022-07-09T12:49:38;8.50;;;6.00;;
62479;SDS011;48526;48.846;2.322;2022-07-09T12:52:14;6.75;;;5.00;;
62479;SDS011;48526;48.846;2.322;2022-07-09T12:54:42;7.75;;;7.50;;
62479;SDS011;48526;48.846;2.322;2022-07-09T12:57:11;7.75;;;6.75;;
62479;SDS011;48526;48.846;2.322;2022-07-09T12:59:49;7.00;;;6.00;;
62479;SDS011;48526;48.846;2.322;2022-07-09T13:02:32;7.25;;;6.00;;
62479;SDS011;48526;48.846;2.322;2022-07-09T13:05:18;6.25;;;6.25;;
62479;SDS011;48526;48.846;2.322;2022-07-09T13:07:46;5.25;;;5.25;;
62479;SDS011;48526;48.846;2.322;2022-07-09T13:10:34;8.75;;;6.00;;
62479;SDS011;48526;48.846;2.322;2022-07-09T13:13:09;6.00;;;5.75;;
62479;SDS011;48526;48.846;2.322;2022-07-09T13:15:58;4.50;;;4.50;;
62479;SDS011;48526;48.846;2.322;2022-07-09T13:18:28;5.50;;;5.00;;
62479;SDS011;48526;48.846;2.322;2022-07-09T13:20:58;5.50;;;5.50;;
62479;SDS011;48526;48.846;2.322;2022-07-09T13:23:23;7.50;;;6.50;;
62479;SDS011;48526;48.846;2.322;2022-07-09T13:25:54;5.25;;;5.25;;
62479;SDS011;48526;48.846;2.322;2022-07-09T13:28:37;6.00;;;6.00;;
62479;SDS011;48526;48.846;2.322;2022-07-09T13:31:02;7.00;;;7.00;;
62479;SDS011;48526;48.846;2.322;2022-07-09T13:33:28;5.00;;;5.00;;
62479;SDS011;48526;48.846;2.322;2022-07-09T13:35:54;7.00;;;5.00;;
62479;SDS011;48526;48.846;2.322;2022-07-09T13:38:22;8.25;;;6.00;;
62479;SDS011;48526;48.846;2.322;2022-07-09T13:40:50;8.50;;;7.50;;
62479;SDS011;48526;48.846;2.322;2022-07-09T13:43:15;7.00;;;7.00;;
62479;SDS011;48526;48.846;2.322;2022-07-09T13:45:41;4.00;;;4.00;;
62479;SDS011;48526;48.846;2.322;2022-07-09T13:48:12;8.00;;;7.00;;
62479;SDS011;48526;48.846;2.322;2022-07-09T13:50:40;7.00;;;7.00;;
62479;SDS011;48526;48.846;2.322;2022-07-09T13:53:07;7.00;;;6.00;;
62479;SDS011;48526;48.846;2.322;2022-07-09T13:56:00;5.50;;;5.50;;
62479;SDS011;48526;48.846;2.322;2022-07-09T13:58:36;5.25;;;5.00;;
62479;SDS011;48526;48.846;2.322;2022-07-09T14:01:07;5.00;;;4.25;;
62479;SDS011;48526;48.846;2.322;2022-07-09T14:03:50;5.00;;;4.50;;
62479;SDS011;48526;48.846;2.322;2022-07-09T14:06:23;4.50;;;4.50;;
62479;SDS011;48526;48.846;2.322;2022-07-09T14:09:17;5.00;;;5.00;;
62479;SDS011;48526;48.846;2.322;2022-07-09T14:11:48;7.00;;;7.00;;
62479;SDS011;48526;48.846;2.322;2022-07-09T14:14:23;5.50;;;5.50;;
62479;SDS011;48526;48.846;2.322;2022-07-09T14:17:05;5.00;;;5.00;;
62479;SDS011;48526;48.846;2.322;2022-07-09T14:19:37;6.50;;;5.00;;
62479;SDS011;48526;48.846;2.322;2022-07-09T14:22:05;4.00;;;4.00;;
62479;SDS011;48526;48.846;2.322;2022-07-09T14:24:33;5.75;;;5.75;;
62479;SDS011;48526;48.846;2.322;2022-07-09T14:27:07;4.00;;;4.00;;
62479;SDS011;48526;48.846;2.322;2022-07-09T14:29:45;4.75;;;4.75;;
62479;SDS011;48526;48.846;2.322;2022-07-09T14:32:21;4.00;;;4.00;;
62479;SDS011;48526;48.846;2.322;2022-07-09T14:34:54;5.25;;;5.25;;
62479;SDS011;48526;48.846;2.322;2022-07-09T14:37:22;4.50;;;4.50;;
62479;SDS011;48526;48.846;2.322;2022-07-09T14:40:02;6.00;;;5.00;;
62479;SDS011;48526;48.846;2.322;2022-07-09T14:42:31;5.75;;;5.75;;
62479;SDS011;48526;48.846;2.322;2022-07-09T14:45:14;4.75;;;4.75;;
62479;SDS011;48526;48.846;2.322;2022-07-09T14:47:39;5.25;;;5.25;;
62479;SDS011;48526;48.846;2.322;2022-07-09T14:50:08;4.50;;;4.00;;
62479;SDS011;48526;48.846;2.322;2022-07-09T14:52:47;5.00;;;5.00;;
62479;SDS011;48526;48.846;2.322;2022-07-09T14:55:12;6.00;;;4.75;;
62479;SDS011;48526;48.846;2.322;2022-07-09T14:57:51;3.00;;;3.00;;